OINR  Ramsar  Airport

Iran

Add Bookmark
ICAO OINR
IATA RZR
Type Airport
Status Operational
Latitude
36° 54' 35" N
36.909901
Longitude
50° 40' 46" E
50.679600
Local (GMT +4.5 ) UTC
May 2, 2016 05:53 am May 2, 2016 01:23
Sunrise-Sunset Local UTC
Begin Civil Twilight 05:41 am 01:11
Sunrise 06:09 am 01:39
Sunset 07:58 pm 15:28
End Civil Twilight 08:26 pm 15:56
VFR
VFR
MVFR
MVFR
IFR
IFR
LIFR
LIFR
Unknown
Unavailable

Current Weather

METAR Observed IFR
OINR 020100Z 00000KT 9999 BKN009 SCT025 16/14 Q1016 Mon, May 2, 2016 @ 01:00 UTC
(23 Minutes ago)
Instrument Flight Rules
Wind Visibility Clouds Conditions
Calm 10 km or more
  • Broken at 900 ft AGL
  • Scattered at 2,500 ft AGL
  • No significant weather
Temperatures Readings Precipitation
Current Temp
16°C
61°F
Dewpoint
14°C
57°F
Humidity 88%
Altimeter 30" Hg
Sea Level Pressure 1,016 mb
None Recorded

Additional weather within a 92.6km radius of OINR

Map ICAO Location
OINN 75km E/SE (111°)
VFR
VFR
MVFR
MVFR
IFR
IFR
LIFR
LIFR
Unknown
Unavailable
-
-

CheckWX.com is intended as a tool to help pilots better visualize weather data. It is not intended as a substitute for an official weather briefing obtained from a Flight Service Station. CheckWX.com does not meet the FAA requirements for an official pre-flight weather briefing. Therefore, it's important that pilots still call and obtain an official FSS pre-flight weather briefing.

© 2007-2016 CheckWX.com
01:23:20 UTC